Météo Nord-Pas-de-Calais   La météo au plus près de chez vous

Station météorologique

Observations météo à Palaminy (31406)

31406002 243 m Dernier relevé à 09:36
20.3°C
Humidité 89 % Vent 4.3 km/h

Journée consultée

Jeudi 3 Septembre 2026

Synthèse de la journée

Périodes de référence en UTC

Température maximale

20.3°C

à 09:36

06h 06h

Température minimale

13.7°C

à 08:00

18h 18h

Rafale maximale

12 km/h

à 09:36

00h 00h

Précipitations

0.2 mm

Cumul quotidien

06h 06h

Graphiques de la journée

Heure locale Réduire

Données détaillées

Relevés météo

Pas de 6 minutes Afficher les relevés infra-horaires
Relevés météo détaillés à Palaminy pour le Jeudi 3 Septembre 2026
Heure Température °C Point de rosée °C Humidité % Vent moyen (raf.), km/h Précipitations mm
09:36 20.3 °C 15.1 °C 72 % 6 km/h (12 km/h) 0 mm0 mm
09:30 20 °C 14.8 °C 72 % 6 km/h (11 km/h) 0 mm0 mm
09:24 19.8 °C 15 °C 74 % 5 km/h (10 km/h) 0 mm0 mm
09:18 19.4 °C 15.3 °C 77 % 5 km/h (10 km/h) 0 mm0 mm
09:12 19 °C 15.5 °C 80 % 5 km/h (10 km/h) 0 mm0 mm
09:06 18.5 °C 15.7 °C 84 % 3 km/h (6 km/h) 0 mm0 mm
09:00 18.1 °C 15.5 °C 85 % 4 km/h (8 km/h) 0 mm0.2 mm
08:54 17.7 °C 15.3 °C 86 % 4 km/h (8 km/h) 0 mm0 mm
08:48 17.4 °C 15.2 °C 87 % 4 km/h (8 km/h) 0 mm0 mm
08:42 17.1 °C 15.1 °C 88 % 5 km/h (10 km/h) 0.2 mm0 mm
08:36 16.9 °C 15.1 °C 89 % 4 km/h (10 km/h) 0 mm0 mm
08:30 16.7 °C 15.2 °C 91 % 3 km/h (8 km/h) 0 mm0 mm
08:24 16.4 °C 15.1 °C 92 % 5 km/h (9 km/h) 0 mm0 mm
08:18 16.1 °C 15 °C 93 % 5 km/h (9 km/h) 0 mm0 mm
08:12 15.9 °C 14.9 °C 94 % 4 km/h (7 km/h) 0 mm0 mm
08:06 15.6 °C 15 °C 96 % 4 km/h (9 km/h) 0 mm0 mm
08:00 15.3 °C 14.8 °C 97 % 4 km/h (9 km/h) 0 mm0 mm
07:54 15 °C 14.7 °C 98 % 4 km/h (8 km/h) 0 mm0 mm
07:48 14.6 °C 14.3 °C 98 % 4 km/h (7 km/h) 0 mm0 mm
07:42 14.3 °C 13.8 °C 97 % 4 km/h (6 km/h) 0 mm0 mm
07:36 13.8 °C 13.2 °C 96 % 3 km/h (5 km/h) 0 mm0 mm
07:30 13.9 °C 13.3 °C 96 % 3 km/h (6 km/h) 0 mm0 mm
07:24 14 °C 13.2 °C 95 % 2 km/h (6 km/h) 0 mm0 mm
07:18 14.1 °C 13.1 °C 94 % 0 km/h (4 km/h) 0 mm0 mm
07:12 14.3 °C 13.5 °C 95 % 3 km/h (6 km/h) 0 mm0 mm
07:06 14.3 °C 13.5 °C 95 % 3 km/h (6 km/h) 0 mm0 mm
07:00 14.5 °C 13.5 °C 94 % 3 km/h (6 km/h) 0 mm0 mm
06:54 14.6 °C 13.6 °C 94 % 4 km/h (7 km/h) 0 mm0 mm
06:48 15 °C 14.2 °C 95 % 4 km/h (6 km/h) 0 mm0 mm
06:42 15.2 °C 14.2 °C 94 % 4 km/h (7 km/h) 0 mm0 mm
06:36 15.2 °C 14.6 °C 96 % 5 km/h (9 km/h) 0 mm0 mm
06:30 14.6 °C 14 °C 96 % 4 km/h (8 km/h) 0 mm0 mm
06:24 14.4 °C 13.6 °C 95 % 3 km/h (5 km/h) 0 mm0 mm
06:18 14.4 °C 13.4 °C 94 % 3 km/h (6 km/h) 0 mm0 mm
06:12 14.3 °C 13.3 °C 94 % 4 km/h (6 km/h) 0 mm0 mm
06:06 14.5 °C 13.4 °C 93 % 3 km/h (6 km/h) 0 mm0 mm
06:00 14.8 °C 13.7 °C 93 % 3 km/h (6 km/h) 0 mm0 mm
05:54 15.1 °C 13.6 °C 91 % 4 km/h (7 km/h) 0 mm0 mm
05:48 15.6 °C 14.3 °C 92 % 4 km/h (7 km/h) 0 mm0 mm
05:42 15.4 °C 13.9 °C 91 % 4 km/h (6 km/h) 0 mm0 mm
05:36 15.9 °C 13.9 °C 88 % 4 km/h (7 km/h) 0 mm0 mm
05:30 16.2 °C 14.6 °C 90 % 5 km/h (7 km/h) 0 mm0 mm
05:24 16.4 °C 14.2 °C 87 % 4 km/h (8 km/h) 0 mm0 mm
05:18 16.6 °C 14.2 °C 86 % 5 km/h (8 km/h) 0 mm0 mm
05:12 17 °C 14.3 °C 84 % 5 km/h (9 km/h) 0 mm0 mm
05:06 17.7 °C 14.4 °C 81 % 5 km/h (9 km/h) 0 mm0 mm
05:00 17.4 °C 14.5 °C 83 % 4 km/h (8 km/h) 0 mm0 mm
04:54 17.8 °C 14.7 °C 82 % 5 km/h (9 km/h) 0 mm0 mm
04:48 17.6 °C 14.9 °C 84 % 6 km/h (10 km/h) 0 mm0 mm
04:42 16.8 °C 15 °C 89 % 6 km/h (10 km/h) 0 mm0 mm
04:36 16.4 °C 14.9 °C 91 % 5 km/h (10 km/h) 0 mm0 mm
04:30 15.7 °C 14.7 °C 94 % 4 km/h (8 km/h) 0 mm0 mm
04:24 15.6 °C 14.5 °C 93 % 5 km/h (11 km/h) 0 mm0 mm
04:18 15.1 °C 14.1 °C 94 % 3 km/h (8 km/h) 0 mm0 mm
04:12 15.1 °C 14 °C 93 % 2 km/h (5 km/h) 0 mm0 mm
04:06 15.3 °C 14.2 °C 93 % 2 km/h (5 km/h) 0 mm0 mm
04:00 15.4 °C 14.1 °C 92 % 2 km/h (4 km/h) 0 mm0 mm
03:54 15.4 °C 14.1 °C 92 % 2 km/h (5 km/h) 0 mm0 mm
03:48 15.7 °C 14.4 °C 92 % 2 km/h (5 km/h) 0 mm0 mm
03:42 16 °C 14.5 °C 91 % 3 km/h (6 km/h) 0 mm0 mm
03:36 16.2 °C 14.9 °C 92 % 4 km/h (8 km/h) 0 mm0 mm
03:30 16.1 °C 15 °C 93 % 5 km/h (10 km/h) 0 mm0 mm
03:24 15.4 °C 14.4 °C 94 % 5 km/h (10 km/h) 0 mm0 mm
03:18 15.5 °C 14.4 °C 93 % 4 km/h (7 km/h) 0 mm0 mm
03:12 15.6 °C 14.5 °C 93 % 2 km/h (6 km/h) 0 mm0 mm
03:06 15.8 °C 14.7 °C 93 % 0 km/h (3 km/h) 0 mm0 mm
03:00 15.9 °C 14.6 °C 92 % 0 km/h (4 km/h) 0 mm0 mm
02:54 15.9 °C 14.8 °C 93 % 3 km/h (4 km/h) 0 mm0 mm
02:48 15.9 °C 14.4 °C 91 % 4 km/h (8 km/h) 0 mm0 mm
02:42 16.1 °C 14.6 °C 91 % 4 km/h (8 km/h) 0 mm0 mm
02:36 16.2 °C 14.7 °C 91 % 3 km/h (6 km/h) 0 mm0 mm
02:30 16.4 °C 15.1 °C 92 % 3 km/h (5 km/h) 0 mm0 mm
02:24 16.4 °C 14.9 °C 91 % 3 km/h (5 km/h) 0 mm0 mm
02:18 16.5 °C 14.9 °C 90 % 3 km/h (7 km/h) 0 mm0 mm
02:12 16.6 °C 15 °C 90 % 4 km/h (8 km/h) 0 mm0 mm
02:06 16.6 °C 15.1 °C 91 % 3 km/h (7 km/h) 0 mm0 mm
02:00 16.5 °C 14.7 °C 89 % 2 km/h (4 km/h) 0 mm0 mm
01:54 16.6 °C 15 °C 90 % 0 km/h (4 km/h) 0 mm0 mm
01:48 16.7 °C 14.9 °C 89 % 0 km/h (3 km/h) 0 mm0 mm
01:42 16.8 °C 15 °C 89 % 0 km/h (3 km/h) 0 mm0 mm
01:36 17.1 °C 15.3 °C 89 % 0 km/h (3 km/h) 0 mm0 mm
01:30 17.2 °C 15.4 °C 89 % 0 km/h (3 km/h) 0 mm0 mm
01:24 17.1 °C 15.1 °C 88 % 0 km/h (3 km/h) 0 mm0 mm
01:18 17.2 °C 15.2 °C 88 % 0 km/h (3 km/h) 0 mm0 mm
01:12 17.2 °C 15.4 °C 89 % 0 km/h (3 km/h) 0 mm0 mm
01:06 17.3 °C 15.3 °C 88 % 2 km/h (3 km/h) 0 mm0 mm
01:00 17.4 °C 15.4 °C 88 % 0 km/h (3 km/h) 0 mm0 mm
00:54 17.3 °C 15.5 °C 89 % 0 km/h (2 km/h) 0 mm0 mm
00:48 17.4 °C 15.6 °C 89 % 0 km/h (3 km/h) 0 mm0 mm
00:42 17.4 °C 15.6 °C 89 % 0 km/h (3 km/h) 0 mm0 mm
00:36 17.4 °C 15.6 °C 89 % 0 km/h (3 km/h) 0 mm0 mm
00:30 17.5 °C 15.7 °C 89 % 0 km/h (4 km/h) 0 mm0 mm
00:24 17.7 °C 15.7 °C 88 % 0 km/h (4 km/h) 0 mm0 mm
00:18 17.8 °C 15.8 °C 88 % 0 km/h (3 km/h) 0 mm0 mm
00:12 17.9 °C 15.9 °C 88 % 2 km/h (3 km/h) 0 mm0 mm
00:06 18 °C 16.3 °C 90 % 0 km/h (2 km/h) 0 mm0 mm
00:00 18.1 °C 16.3 °C 89 % 0 km/h (0 km/h) 0 mm0 mm

Données via Météo-France

Relevés météo à Palaminy

Cette page rassemble les observations de la station de Palaminy : température, humidité, vent, précipitations et pression atmosphérique. Les graphiques facilitent le suivi de la journée, tandis que le tableau donne accès aux mesures horaires et infra-horaires disponibles.

Pour replacer ces mesures dans leur contexte, consultez la climatologie de Palaminy ainsi que ses normales et records. Retrouvez aussi la carte des observations météo en temps réel.